Terminal Aerodrome Forecast
Issued by NWS Cleveland, OH

Home | Current Version | Previous Version | Graphics & Text | Print | Product List | Glossary Off
Versions: 1 2 3 4 5 6 7 8 9 10 11 12 13 14 15 16 17 18 19

000
FTUS41 KCLE 240500
TAFCAK
TAF
KCAK 240536Z 2406/2506 35005KT P6SM SKC
     FM240700 02005KT P6SM BKN015
      TEMPO 2407/2411 4SM BR BKN025
     FM241100 03008KT P6SM BKN030
     FM241400 03008KT P6SM BKN050
     FM241900 01005KT P6SM SCT050
     FM250100 VRB03KT P6SM SKC=

USA.gov is the U.S. government's official web portal to all federal, state and local government web resources and services.